sensor_id;sensor_type;location;lat;lon;timestamp;P1;durP1;ratioP1;P2;durP2;ratioP2
21352;SDS011;10834;52.268;6.770;2024-02-28T00:00:24;41.37;;;17.70;;
21352;SDS011;10834;52.268;6.770;2024-02-28T00:03:08;64.03;;;21.30;;
21352;SDS011;10834;52.268;6.770;2024-02-28T00:05:53;67.97;;;21.07;;
21352;SDS011;10834;52.268;6.770;2024-02-28T00:08:37;54.00;;;18.80;;
21352;SDS011;10834;52.268;6.770;2024-02-28T00:11:21;41.47;;;17.93;;
21352;SDS011;10834;52.268;6.770;2024-02-28T00:14:05;40.23;;;18.33;;
21352;SDS011;10834;52.268;6.770;2024-02-28T00:16:49;70.53;;;20.30;;
21352;SDS011;10834;52.268;6.770;2024-02-28T00:19:34;53.30;;;20.00;;
21352;SDS011;10834;52.268;6.770;2024-02-28T00:22:18;60.90;;;19.80;;
21352;SDS011;10834;52.268;6.770;2024-02-28T00:25:03;73.57;;;20.67;;
21352;SDS011;10834;52.268;6.770;2024-02-28T00:27:49;59.23;;;20.43;;
21352;SDS011;10834;52.268;6.770;2024-02-28T00:30:33;66.17;;;21.33;;
21352;SDS011;10834;52.268;6.770;2024-02-28T00:33:17;86.40;;;20.73;;
21352;SDS011;10834;52.268;6.770;2024-02-28T00:36:01;72.17;;;20.60;;
21352;SDS011;10834;52.268;6.770;2024-02-28T00:38:46;59.73;;;19.60;;
21352;SDS011;10834;52.268;6.770;2024-02-28T00:41:30;69.30;;;19.47;;
21352;SDS011;10834;52.268;6.770;2024-02-28T00:44:15;62.20;;;19.40;;
21352;SDS011;10834;52.268;6.770;2024-02-28T00:46:59;65.67;;;18.00;;
21352;SDS011;10834;52.268;6.770;2024-02-28T00:49:43;67.03;;;19.60;;
21352;SDS011;10834;52.268;6.770;2024-02-28T00:52:27;60.27;;;17.30;;
21352;SDS011;10834;52.268;6.770;2024-02-28T00:55:11;54.30;;;17.53;;
21352;SDS011;10834;52.268;6.770;2024-02-28T00:57:55;40.53;;;14.23;;
21352;SDS011;10834;52.268;6.770;2024-02-28T01:00:39;35.30;;;16.07;;
21352;SDS011;10834;52.268;6.770;2024-02-28T01:03:23;50.23;;;16.80;;
21352;SDS011;10834;52.268;6.770;2024-02-28T01:06:08;45.43;;;16.43;;
21352;SDS011;10834;52.268;6.770;2024-02-28T01:08:52;35.57;;;16.23;;
21352;SDS011;10834;52.268;6.770;2024-02-28T01:11:36;47.87;;;16.87;;
21352;SDS011;10834;52.268;6.770;2024-02-28T01:14:20;35.77;;;15.67;;
21352;SDS011;10834;52.268;6.770;2024-02-28T01:17:04;78.73;;;18.87;;
21352;SDS011;10834;52.268;6.770;2024-02-28T01:19:48;44.40;;;18.10;;
21352;SDS011;10834;52.268;6.770;2024-02-28T01:22:32;43.17;;;18.73;;
21352;SDS011;10834;52.268;6.770;2024-02-28T01:25:17;66.70;;;18.40;;
21352;SDS011;10834;52.268;6.770;2024-02-28T01:28:03;54.23;;;19.33;;
21352;SDS011;10834;52.268;6.770;2024-02-28T01:30:48;36.53;;;16.63;;
21352;SDS011;10834;52.268;6.770;2024-02-28T01:33:32;32.73;;;15.97;;
21352;SDS011;10834;52.268;6.770;2024-02-28T01:36:16;37.07;;;15.57;;
21352;SDS011;10834;52.268;6.770;2024-02-28T01:39:00;54.40;;;15.97;;
21352;SDS011;10834;52.268;6.770;2024-02-28T01:41:54;35.33;;;14.60;;
21352;SDS011;10834;52.268;6.770;2024-02-28T01:44:40;35.43;;;16.07;;
21352;SDS011;10834;52.268;6.770;2024-02-28T01:47:28;50.90;;;16.30;;
21352;SDS011;10834;52.268;6.770;2024-02-28T01:50:14;43.67;;;15.33;;
21352;SDS011;10834;52.268;6.770;2024-02-28T01:52:58;42.20;;;16.27;;
21352;SDS011;10834;52.268;6.770;2024-02-28T01:55:43;44.10;;;17.27;;
21352;SDS011;10834;52.268;6.770;2024-02-28T01:58:28;51.37;;;16.13;;
21352;SDS011;10834;52.268;6.770;2024-02-28T02:01:16;51.37;;;18.40;;
21352;SDS011;10834;52.268;6.770;2024-02-28T02:04:01;37.33;;;16.07;;
21352;SDS011;10834;52.268;6.770;2024-02-28T02:06:45;39.07;;;16.20;;
21352;SDS011;10834;52.268;6.770;2024-02-28T02:09:31;30.40;;;15.50;;
21352;SDS011;10834;52.268;6.770;2024-02-28T02:12:15;38.23;;;16.63;;
21352;SDS011;10834;52.268;6.770;2024-02-28T02:15:00;38.07;;;17.23;;
21352;SDS011;10834;52.268;6.770;2024-02-28T02:17:44;57.80;;;18.40;;
21352;SDS011;10834;52.268;6.770;2024-02-28T02:20:29;42.43;;;16.80;;
21352;SDS011;10834;52.268;6.770;2024-02-28T02:23:18;41.80;;;17.30;;
21352;SDS011;10834;52.268;6.770;2024-02-28T02:26:02;46.23;;;16.77;;
21352;SDS011;10834;52.268;6.770;2024-02-28T02:28:47;46.93;;;17.20;;
21352;SDS011;10834;52.268;6.770;2024-02-28T02:31:31;49.33;;;17.77;;
21352;SDS011;10834;52.268;6.770;2024-02-28T02:34:15;57.23;;;18.40;;
21352;SDS011;10834;52.268;6.770;2024-02-28T02:36:59;42.97;;;17.20;;
21352;SDS011;10834;52.268;6.770;2024-02-28T02:39:43;43.77;;;16.40;;
21352;SDS011;10834;52.268;6.770;2024-02-28T02:42:27;29.20;;;15.73;;
21352;SDS011;10834;52.268;6.770;2024-02-28T02:45:11;35.60;;;17.30;;
21352;SDS011;10834;52.268;6.770;2024-02-28T02:47:55;37.07;;;16.53;;
21352;SDS011;10834;52.268;6.770;2024-02-28T02:50:39;39.87;;;17.77;;
21352;SDS011;10834;52.268;6.770;2024-02-28T02:53:23;39.90;;;17.60;;
21352;SDS011;10834;52.268;6.770;2024-02-28T02:56:08;48.83;;;18.83;;
21352;SDS011;10834;52.268;6.770;2024-02-28T02:58:52;44.63;;;18.47;;
21352;SDS011;10834;52.268;6.770;2024-02-28T03:01:36;43.33;;;16.47;;
21352;SDS011;10834;52.268;6.770;2024-02-28T03:04:20;41.87;;;18.67;;
21352;SDS011;10834;52.268;6.770;2024-02-28T03:07:04;39.00;;;18.10;;
21352;SDS011;10834;52.268;6.770;2024-02-28T03:09:48;44.03;;;17.43;;
21352;SDS011;10834;52.268;6.770;2024-02-28T03:12:32;49.07;;;17.33;;
21352;SDS011;10834;52.268;6.770;2024-02-28T03:15:16;47.97;;;19.23;;
21352;SDS011;10834;52.268;6.770;2024-02-28T03:18:00;42.40;;;18.43;;
21352;SDS011;10834;52.268;6.770;2024-02-28T03:20:45;42.30;;;17.67;;
21352;SDS011;10834;52.268;6.770;2024-02-28T03:23:29;37.33;;;18.10;;
21352;SDS011;10834;52.268;6.770;2024-02-28T03:26:13;42.27;;;16.93;;
21352;SDS011;10834;52.268;6.770;2024-02-28T03:28:58;51.53;;;18.57;;
21352;SDS011;10834;52.268;6.770;2024-02-28T03:31:42;49.80;;;18.53;;
21352;SDS011;10834;52.268;6.770;2024-02-28T03:34:26;41.83;;;18.37;;
21352;SDS011;10834;52.268;6.770;2024-02-28T03:37:10;43.73;;;19.13;;
21352;SDS011;10834;52.268;6.770;2024-02-28T03:39:55;54.87;;;19.00;;
21352;SDS011;10834;52.268;6.770;2024-02-28T03:42:39;60.90;;;19.67;;
21352;SDS011;10834;52.268;6.770;2024-02-28T03:45:23;59.97;;;18.60;;
21352;SDS011;10834;52.268;6.770;2024-02-28T03:48:07;40.33;;;18.33;;
21352;SDS011;10834;52.268;6.770;2024-02-28T03:50:51;44.30;;;18.67;;
21352;SDS011;10834;52.268;6.770;2024-02-28T03:53:35;46.93;;;18.47;;
21352;SDS011;10834;52.268;6.770;2024-02-28T03:56:25;41.67;;;18.43;;
21352;SDS011;10834;52.268;6.770;2024-02-28T03:59:10;49.43;;;19.20;;
21352;SDS011;10834;52.268;6.770;2024-02-28T04:01:54;54.97;;;19.53;;
21352;SDS011;10834;52.268;6.770;2024-02-28T04:04:38;47.17;;;18.60;;
21352;SDS011;10834;52.268;6.770;2024-02-28T04:07:22;46.00;;;19.70;;
21352;SDS011;10834;52.268;6.770;2024-02-28T04:10:06;51.13;;;21.27;;
21352;SDS011;10834;52.268;6.770;2024-02-28T04:12:51;44.03;;;19.20;;
21352;SDS011;10834;52.268;6.770;2024-02-28T04:15:35;48.07;;;20.83;;
21352;SDS011;10834;52.268;6.770;2024-02-28T04:18:21;47.43;;;19.00;;
21352;SDS011;10834;52.268;6.770;2024-02-28T04:21:05;44.60;;;20.50;;
21352;SDS011;10834;52.268;6.770;2024-02-28T04:23:48;42.93;;;20.03;;
21352;SDS011;10834;52.268;6.770;2024-02-28T04:26:33;49.03;;;21.00;;
21352;SDS011;10834;52.268;6.770;2024-02-28T04:29:17;51.83;;;19.57;;
21352;SDS011;10834;52.268;6.770;2024-02-28T04:32:02;49.90;;;18.93;;
21352;SDS011;10834;52.268;6.770;2024-02-28T04:34:46;47.37;;;20.47;;
21352;SDS011;10834;52.268;6.770;2024-02-28T04:37:30;45.30;;;20.33;;
21352;SDS011;10834;52.268;6.770;2024-02-28T04:40:14;48.10;;;20.33;;
21352;SDS011;10834;52.268;6.770;2024-02-28T04:42:59;44.70;;;21.37;;
21352;SDS011;10834;52.268;6.770;2024-02-28T04:45:43;46.90;;;21.03;;
21352;SDS011;10834;52.268;6.770;2024-02-28T04:48:28;40.80;;;20.70;;
21352;SDS011;10834;52.268;6.770;2024-02-28T04:51:15;49.17;;;21.73;;
21352;SDS011;10834;52.268;6.770;2024-02-28T04:54:01;47.20;;;20.53;;
21352;SDS011;10834;52.268;6.770;2024-02-28T04:56:45;51.90;;;21.83;;
21352;SDS011;10834;52.268;6.770;2024-02-28T04:59:30;46.00;;;19.90;;
21352;SDS011;10834;52.268;6.770;2024-02-28T05:02:15;47.47;;;20.90;;
21352;SDS011;10834;52.268;6.770;2024-02-28T05:05:00;51.93;;;24.47;;
21352;SDS011;10834;52.268;6.770;2024-02-28T05:07:44;52.43;;;21.37;;
21352;SDS011;10834;52.268;6.770;2024-02-28T05:10:28;47.47;;;22.07;;
21352;SDS011;10834;52.268;6.770;2024-02-28T05:13:12;49.40;;;21.43;;
21352;SDS011;10834;52.268;6.770;2024-02-28T05:15:56;52.40;;;22.43;;
21352;SDS011;10834;52.268;6.770;2024-02-28T05:18:40;58.13;;;24.33;;
21352;SDS011;10834;52.268;6.770;2024-02-28T05:21:25;54.07;;;23.73;;
21352;SDS011;10834;52.268;6.770;2024-02-28T05:24:09;53.43;;;23.93;;
21352;SDS011;10834;52.268;6.770;2024-02-28T05:26:54;54.70;;;23.37;;
21352;SDS011;10834;52.268;6.770;2024-02-28T05:29:38;61.77;;;23.40;;
21352;SDS011;10834;52.268;6.770;2024-02-28T05:32:23;53.40;;;23.27;;
21352;SDS011;10834;52.268;6.770;2024-02-28T05:35:07;60.90;;;24.60;;
21352;SDS011;10834;52.268;6.770;2024-02-28T05:37:54;60.67;;;24.00;;
21352;SDS011;10834;52.268;6.770;2024-02-28T05:40:38;52.47;;;22.30;;
21352;SDS011;10834;52.268;6.770;2024-02-28T05:43:24;52.93;;;24.00;;
21352;SDS011;10834;52.268;6.770;2024-02-28T05:46:08;54.00;;;23.20;;
21352;SDS011;10834;52.268;6.770;2024-02-28T05:48:52;60.43;;;26.13;;
21352;SDS011;10834;52.268;6.770;2024-02-28T05:51:36;62.80;;;23.23;;
21352;SDS011;10834;52.268;6.770;2024-02-28T05:54:21;62.07;;;25.27;;
21352;SDS011;10834;52.268;6.770;2024-02-28T05:57:05;53.90;;;22.90;;
21352;SDS011;10834;52.268;6.770;2024-02-28T05:59:49;59.93;;;26.50;;
21352;SDS011;10834;52.268;6.770;2024-02-28T06:02:33;56.37;;;24.83;;
21352;SDS011;10834;52.268;6.770;2024-02-28T06:05:17;60.70;;;27.67;;
21352;SDS011;10834;52.268;6.770;2024-02-28T06:08:01;64.50;;;26.83;;
21352;SDS011;10834;52.268;6.770;2024-02-28T06:10:46;64.10;;;25.27;;
21352;SDS011;10834;52.268;6.770;2024-02-28T06:13:31;60.30;;;25.93;;
21352;SDS011;10834;52.268;6.770;2024-02-28T06:16:15;59.77;;;27.10;;
21352;SDS011;10834;52.268;6.770;2024-02-28T06:19:01;60.93;;;25.47;;
21352;SDS011;10834;52.268;6.770;2024-02-28T06:21:45;65.47;;;26.90;;
21352;SDS011;10834;52.268;6.770;2024-02-28T06:24:29;67.70;;;27.77;;
21352;SDS011;10834;52.268;6.770;2024-02-28T06:27:13;71.23;;;28.33;;
21352;SDS011;10834;52.268;6.770;2024-02-28T06:29:59;69.17;;;29.10;;
21352;SDS011;10834;52.268;6.770;2024-02-28T06:32:43;67.27;;;27.93;;
21352;SDS011;10834;52.268;6.770;2024-02-28T06:35:27;66.50;;;27.07;;
21352;SDS011;10834;52.268;6.770;2024-02-28T06:38:11;75.47;;;30.43;;
21352;SDS011;10834;52.268;6.770;2024-02-28T06:40:55;73.90;;;28.23;;
21352;SDS011;10834;52.268;6.770;2024-02-28T06:43:39;81.90;;;30.40;;
21352;SDS011;10834;52.268;6.770;2024-02-28T06:46:24;67.47;;;28.30;;
21352;SDS011;10834;52.268;6.770;2024-02-28T06:49:08;74.90;;;30.47;;
21352;SDS011;10834;52.268;6.770;2024-02-28T06:51:52;73.40;;;29.87;;
21352;SDS011;10834;52.268;6.770;2024-02-28T06:54:36;79.33;;;29.47;;
21352;SDS011;10834;52.268;6.770;2024-02-28T06:57:20;79.33;;;29.83;;
21352;SDS011;10834;52.268;6.770;2024-02-28T07:00:05;76.20;;;29.60;;
21352;SDS011;10834;52.268;6.770;2024-02-28T07:02:51;82.63;;;29.43;;
21352;SDS011;10834;52.268;6.770;2024-02-28T07:05:36;83.83;;;30.47;;
21352;SDS011;10834;52.268;6.770;2024-02-28T07:08:20;78.03;;;31.97;;
21352;SDS011;10834;52.268;6.770;2024-02-28T07:11:12;80.90;;;30.57;;
21352;SDS011;10834;52.268;6.770;2024-02-28T07:13:57;78.80;;;30.23;;
21352;SDS011;10834;52.268;6.770;2024-02-28T07:16:46;79.47;;;31.13;;
21352;SDS011;10834;52.268;6.770;2024-02-28T07:19:30;74.27;;;29.27;;
21352;SDS011;10834;52.268;6.770;2024-02-28T07:22:14;77.40;;;30.30;;
21352;SDS011;10834;52.268;6.770;2024-02-28T07:24:58;72.80;;;29.50;;
21352;SDS011;10834;52.268;6.770;2024-02-28T07:27:42;69.07;;;29.67;;
21352;SDS011;10834;52.268;6.770;2024-02-28T07:30:26;66.00;;;29.90;;
21352;SDS011;10834;52.268;6.770;2024-02-28T07:33:10;66.63;;;28.07;;
21352;SDS011;10834;52.268;6.770;2024-02-28T07:35:54;64.83;;;28.57;;
21352;SDS011;10834;52.268;6.770;2024-02-28T07:38:41;72.03;;;30.37;;
21352;SDS011;10834;52.268;6.770;2024-02-28T07:41:26;59.60;;;29.23;;
21352;SDS011;10834;52.268;6.770;2024-02-28T07:44:11;62.90;;;27.33;;
21352;SDS011;10834;52.268;6.770;2024-02-28T07:46:55;59.47;;;27.50;;
21352;SDS011;10834;52.268;6.770;2024-02-28T07:49:39;63.87;;;28.33;;
21352;SDS011;10834;52.268;6.770;2024-02-28T07:52:24;56.83;;;26.17;;
21352;SDS011;10834;52.268;6.770;2024-02-28T07:55:08;54.07;;;25.97;;
21352;SDS011;10834;52.268;6.770;2024-02-28T07:57:53;52.80;;;25.40;;
21352;SDS011;10834;52.268;6.770;2024-02-28T08:00:37;48.10;;;24.80;;
21352;SDS011;10834;52.268;6.770;2024-02-28T08:03:22;53.57;;;24.97;;
21352;SDS011;10834;52.268;6.770;2024-02-28T08:06:07;51.77;;;24.97;;
21352;SDS011;10834;52.268;6.770;2024-02-28T08:08:52;56.23;;;26.07;;
21352;SDS011;10834;52.268;6.770;2024-02-28T08:11:36;49.07;;;24.23;;
21352;SDS011;10834;52.268;6.770;2024-02-28T08:14:20;50.90;;;22.67;;
21352;SDS011;10834;52.268;6.770;2024-02-28T08:17:04;41.50;;;23.47;;
21352;SDS011;10834;52.268;6.770;2024-02-28T08:19:48;42.90;;;24.17;;
21352;SDS011;10834;52.268;6.770;2024-02-28T08:22:33;42.43;;;23.07;;
21352;SDS011;10834;52.268;6.770;2024-02-28T08:25:18;38.63;;;22.10;;
21352;SDS011;10834;52.268;6.770;2024-02-28T08:28:02;42.13;;;23.23;;
21352;SDS011;10834;52.268;6.770;2024-02-28T08:30:48;44.60;;;22.47;;
21352;SDS011;10834;52.268;6.770;2024-02-28T08:33:33;39.83;;;22.37;;
21352;SDS011;10834;52.268;6.770;2024-02-28T08:36:17;41.53;;;22.27;;
21352;SDS011;10834;52.268;6.770;2024-02-28T08:39:01;41.37;;;22.37;;
21352;SDS011;10834;52.268;6.770;2024-02-28T08:41:48;39.00;;;23.20;;
21352;SDS011;10834;52.268;6.770;2024-02-28T08:44:32;41.23;;;22.47;;
21352;SDS011;10834;52.268;6.770;2024-02-28T08:47:16;35.67;;;21.60;;
21352;SDS011;10834;52.268;6.770;2024-02-28T08:50:00;36.73;;;21.43;;
21352;SDS011;10834;52.268;6.770;2024-02-28T08:52:44;40.13;;;22.73;;
21352;SDS011;10834;52.268;6.770;2024-02-28T08:55:28;35.30;;;20.87;;
21352;SDS011;10834;52.268;6.770;2024-02-28T08:58:13;38.50;;;22.63;;
21352;SDS011;10834;52.268;6.770;2024-02-28T09:00:57;35.93;;;20.77;;
21352;SDS011;10834;52.268;6.770;2024-02-28T09:03:42;36.10;;;22.57;;
21352;SDS011;10834;52.268;6.770;2024-02-28T09:06:26;35.70;;;21.93;;
21352;SDS011;10834;52.268;6.770;2024-02-28T09:09:11;39.17;;;22.60;;
21352;SDS011;10834;52.268;6.770;2024-02-28T09:11:55;40.83;;;21.40;;
21352;SDS011;10834;52.268;6.770;2024-02-28T09:14:39;37.13;;;22.83;;
21352;SDS011;10834;52.268;6.770;2024-02-28T09:17:23;30.40;;;20.63;;
21352;SDS011;10834;52.268;6.770;2024-02-28T09:20:07;33.27;;;20.33;;
21352;SDS011;10834;52.268;6.770;2024-02-28T09:22:52;34.93;;;21.40;;
21352;SDS011;10834;52.268;6.770;2024-02-28T09:25:36;36.50;;;20.43;;
21352;SDS011;10834;52.268;6.770;2024-02-28T09:28:20;38.77;;;21.97;;
21352;SDS011;10834;52.268;6.770;2024-02-28T09:31:05;32.87;;;20.90;;
21352;SDS011;10834;52.268;6.770;2024-02-28T09:33:49;33.53;;;20.80;;
21352;SDS011;10834;52.268;6.770;2024-02-28T09:36:39;36.17;;;22.37;;
21352;SDS011;10834;52.268;6.770;2024-02-28T09:39:26;35.27;;;23.23;;
21352;SDS011;10834;52.268;6.770;2024-02-28T09:42:10;38.47;;;24.30;;
21352;SDS011;10834;52.268;6.770;2024-02-28T09:44:54;32.90;;;21.63;;
21352;SDS011;10834;52.268;6.770;2024-02-28T09:47:44;35.63;;;22.80;;
21352;SDS011;10834;52.268;6.770;2024-02-28T09:50:28;38.07;;;22.77;;
21352;SDS011;10834;52.268;6.770;2024-02-28T09:53:13;34.97;;;22.43;;
21352;SDS011;10834;52.268;6.770;2024-02-28T09:55:58;38.87;;;22.40;;
21352;SDS011;10834;52.268;6.770;2024-02-28T09:58:42;37.80;;;24.07;;
21352;SDS011;10834;52.268;6.770;2024-02-28T10:01:28;35.40;;;22.60;;
21352;SDS011;10834;52.268;6.770;2024-02-28T10:04:15;39.73;;;25.10;;
21352;SDS011;10834;52.268;6.770;2024-02-28T10:07:11;35.97;;;23.60;;
21352;SDS011;10834;52.268;6.770;2024-02-28T10:09:57;37.83;;;22.67;;
21352;SDS011;10834;52.268;6.770;2024-02-28T10:12:41;33.97;;;23.00;;
21352;SDS011;10834;52.268;6.770;2024-02-28T10:15:26;36.30;;;23.60;;
21352;SDS011;10834;52.268;6.770;2024-02-28T10:18:11;37.80;;;23.67;;
21352;SDS011;10834;52.268;6.770;2024-02-28T10:20:55;32.20;;;22.70;;
21352;SDS011;10834;52.268;6.770;2024-02-28T10:23:39;36.10;;;23.10;;
21352;SDS011;10834;52.268;6.770;2024-02-28T10:26:25;37.37;;;23.13;;
21352;SDS011;10834;52.268;6.770;2024-02-28T10:29:09;34.67;;;23.07;;
21352;SDS011;10834;52.268;6.770;2024-02-28T10:31:57;37.60;;;23.57;;
21352;SDS011;10834;52.268;6.770;2024-02-28T10:34:42;38.03;;;23.87;;
21352;SDS011;10834;52.268;6.770;2024-02-28T10:37:30;36.10;;;23.40;;
21352;SDS011;10834;52.268;6.770;2024-02-28T10:40:16;38.60;;;24.20;;
21352;SDS011;10834;52.268;6.770;2024-02-28T10:43:00;44.60;;;24.03;;
21352;SDS011;10834;52.268;6.770;2024-02-28T10:45:48;42.60;;;26.03;;
21352;SDS011;10834;52.268;6.770;2024-02-28T10:48:33;35.67;;;23.90;;
21352;SDS011;10834;52.268;6.770;2024-02-28T10:51:17;35.37;;;23.20;;
21352;SDS011;10834;52.268;6.770;2024-02-28T10:54:07;40.20;;;23.93;;
21352;SDS011;10834;52.268;6.770;2024-02-28T10:56:54;39.03;;;24.90;;
21352;SDS011;10834;52.268;6.770;2024-02-28T10:59:38;40.83;;;24.83;;
21352;SDS011;10834;52.268;6.770;2024-02-28T11:02:26;36.57;;;24.00;;
21352;SDS011;10834;52.268;6.770;2024-02-28T11:05:10;36.03;;;22.73;;
21352;SDS011;10834;52.268;6.770;2024-02-28T11:07:54;38.10;;;23.77;;
21352;SDS011;10834;52.268;6.770;2024-02-28T11:10:41;42.43;;;23.40;;
21352;SDS011;10834;52.268;6.770;2024-02-28T11:13:27;37.77;;;22.00;;
21352;SDS011;10834;52.268;6.770;2024-02-28T11:16:12;37.57;;;22.67;;
21352;SDS011;10834;52.268;6.770;2024-02-28T11:18:56;36.00;;;23.47;;
21352;SDS011;10834;52.268;6.770;2024-02-28T11:21:41;39.17;;;23.77;;
21352;SDS011;10834;52.268;6.770;2024-02-28T11:24:28;41.37;;;24.47;;
21352;SDS011;10834;52.268;6.770;2024-02-28T11:27:14;39.40;;;24.33;;
21352;SDS011;10834;52.268;6.770;2024-02-28T11:29:59;37.37;;;23.30;;
21352;SDS011;10834;52.268;6.770;2024-02-28T11:32:45;35.87;;;22.77;;
21352;SDS011;10834;52.268;6.770;2024-02-28T11:35:29;40.03;;;23.33;;
21352;SDS011;10834;52.268;6.770;2024-02-28T11:38:14;40.87;;;23.87;;
21352;SDS011;10834;52.268;6.770;2024-02-28T11:40:59;36.80;;;22.93;;
21352;SDS011;10834;52.268;6.770;2024-02-28T11:43:43;41.37;;;24.53;;
21352;SDS011;10834;52.268;6.770;2024-02-28T11:46:27;37.43;;;23.53;;
21352;SDS011;10834;52.268;6.770;2024-02-28T11:49:14;37.03;;;22.70;;
21352;SDS011;10834;52.268;6.770;2024-02-28T11:51:59;38.77;;;22.60;;
21352;SDS011;10834;52.268;6.770;2024-02-28T11:54:44;35.13;;;22.03;;
21352;SDS011;10834;52.268;6.770;2024-02-28T11:57:29;44.13;;;24.27;;
21352;SDS011;10834;52.268;6.770;2024-02-28T12:00:17;36.80;;;21.53;;
21352;SDS011;10834;52.268;6.770;2024-02-28T12:03:05;37.60;;;22.07;;
21352;SDS011;10834;52.268;6.770;2024-02-28T12:05:52;34.80;;;22.07;;
21352;SDS011;10834;52.268;6.770;2024-02-28T12:08:39;36.73;;;23.50;;
21352;SDS011;10834;52.268;6.770;2024-02-28T12:11:26;34.73;;;21.13;;
21352;SDS011;10834;52.268;6.770;2024-02-28T12:14:12;33.67;;;20.77;;
21352;SDS011;10834;52.268;6.770;2024-02-28T12:16:57;34.43;;;21.37;;
21352;SDS011;10834;52.268;6.770;2024-02-28T12:19:41;37.13;;;22.20;;
21352;SDS011;10834;52.268;6.770;2024-02-28T12:22:26;38.47;;;23.13;;
21352;SDS011;10834;52.268;6.770;2024-02-28T12:25:11;37.80;;;22.27;;
21352;SDS011;10834;52.268;6.770;2024-02-28T12:27:55;32.90;;;21.03;;
21352;SDS011;10834;52.268;6.770;2024-02-28T12:30:40;34.93;;;20.97;;
21352;SDS011;10834;52.268;6.770;2024-02-28T12:33:28;35.27;;;22.80;;
21352;SDS011;10834;52.268;6.770;2024-02-28T12:36:13;41.67;;;22.27;;
21352;SDS011;10834;52.268;6.770;2024-02-28T12:38:58;36.47;;;23.07;;
21352;SDS011;10834;52.268;6.770;2024-02-28T12:41:43;39.63;;;23.23;;
21352;SDS011;10834;52.268;6.770;2024-02-28T12:44:27;45.30;;;23.83;;
21352;SDS011;10834;52.268;6.770;2024-02-28T12:47:11;39.43;;;23.03;;
21352;SDS011;10834;52.268;6.770;2024-02-28T12:49:56;39.90;;;23.50;;
21352;SDS011;10834;52.268;6.770;2024-02-28T12:52:40;41.47;;;24.87;;
21352;SDS011;10834;52.268;6.770;2024-02-28T12:55:24;42.13;;;25.13;;
21352;SDS011;10834;52.268;6.770;2024-02-28T12:58:08;44.53;;;24.17;;
21352;SDS011;10834;52.268;6.770;2024-02-28T13:00:52;42.87;;;25.20;;
21352;SDS011;10834;52.268;6.770;2024-02-28T13:03:37;45.10;;;24.40;;
21352;SDS011;10834;52.268;6.770;2024-02-28T13:06:21;42.33;;;25.73;;
21352;SDS011;10834;52.268;6.770;2024-02-28T13:09:06;46.73;;;25.20;;
21352;SDS011;10834;52.268;6.770;2024-02-28T13:11:55;47.63;;;25.23;;
21352;SDS011;10834;52.268;6.770;2024-02-28T13:14:39;45.93;;;25.67;;
21352;SDS011;10834;52.268;6.770;2024-02-28T13:17:23;47.53;;;26.00;;
21352;SDS011;10834;52.268;6.770;2024-02-28T13:20:08;47.67;;;25.43;;
21352;SDS011;10834;52.268;6.770;2024-02-28T13:22:53;46.63;;;25.90;;
21352;SDS011;10834;52.268;6.770;2024-02-28T13:25:37;43.70;;;25.10;;
21352;SDS011;10834;52.268;6.770;2024-02-28T13:28:22;48.17;;;23.97;;
21352;SDS011;10834;52.268;6.770;2024-02-28T13:31:13;43.63;;;24.57;;
21352;SDS011;10834;52.268;6.770;2024-02-28T13:33:57;47.97;;;25.53;;
21352;SDS011;10834;52.268;6.770;2024-02-28T13:36:41;44.13;;;23.50;;
21352;SDS011;10834;52.268;6.770;2024-02-28T13:39:26;42.53;;;23.77;;
21352;SDS011;10834;52.268;6.770;2024-02-28T13:42:12;45.83;;;24.30;;
21352;SDS011;10834;52.268;6.770;2024-02-28T13:44:56;38.33;;;23.17;;
21352;SDS011;10834;52.268;6.770;2024-02-28T13:47:40;48.07;;;23.50;;
21352;SDS011;10834;52.268;6.770;2024-02-28T13:50:24;42.03;;;23.83;;
21352;SDS011;10834;52.268;6.770;2024-02-28T13:53:15;45.17;;;25.47;;
21352;SDS011;10834;52.268;6.770;2024-02-28T13:55:59;44.57;;;25.37;;
21352;SDS011;10834;52.268;6.770;2024-02-28T13:58:43;42.83;;;23.50;;
21352;SDS011;10834;52.268;6.770;2024-02-28T14:01:27;40.50;;;22.57;;
21352;SDS011;10834;52.268;6.770;2024-02-28T14:04:12;40.30;;;22.60;;
21352;SDS011;10834;52.268;6.770;2024-02-28T14:06:56;46.57;;;25.33;;
21352;SDS011;10834;52.268;6.770;2024-02-28T14:09:40;46.23;;;24.20;;
21352;SDS011;10834;52.268;6.770;2024-02-28T14:12:24;47.70;;;25.17;;
21352;SDS011;10834;52.268;6.770;2024-02-28T14:15:08;44.23;;;24.83;;
21352;SDS011;10834;52.268;6.770;2024-02-28T14:17:54;42.73;;;23.53;;
21352;SDS011;10834;52.268;6.770;2024-02-28T14:20:38;46.30;;;25.50;;
21352;SDS011;10834;52.268;6.770;2024-02-28T14:23:23;45.73;;;23.20;;
21352;SDS011;10834;52.268;6.770;2024-02-28T14:26:07;44.63;;;23.47;;
21352;SDS011;10834;52.268;6.770;2024-02-28T14:28:52;45.00;;;24.47;;
21352;SDS011;10834;52.268;6.770;2024-02-28T14:31:37;45.60;;;23.33;;
21352;SDS011;10834;52.268;6.770;2024-02-28T14:34:21;47.27;;;23.93;;
21352;SDS011;10834;52.268;6.770;2024-02-28T14:37:05;39.90;;;21.90;;
21352;SDS011;10834;52.268;6.770;2024-02-28T14:39:49;39.20;;;22.50;;
21352;SDS011;10834;52.268;6.770;2024-02-28T14:42:34;43.93;;;23.50;;
21352;SDS011;10834;52.268;6.770;2024-02-28T14:45:18;45.40;;;23.03;;
21352;SDS011;10834;52.268;6.770;2024-02-28T14:48:02;48.73;;;22.93;;
21352;SDS011;10834;52.268;6.770;2024-02-28T14:50:47;46.43;;;22.93;;
21352;SDS011;10834;52.268;6.770;2024-02-28T14:53:32;41.93;;;22.43;;
21352;SDS011;10834;52.268;6.770;2024-02-28T14:56:16;42.90;;;21.90;;
21352;SDS011;10834;52.268;6.770;2024-02-28T14:59:00;43.13;;;22.17;;
21352;SDS011;10834;52.268;6.770;2024-02-28T15:01:44;41.40;;;21.60;;
21352;SDS011;10834;52.268;6.770;2024-02-28T15:04:29;48.83;;;23.23;;
21352;SDS011;10834;52.268;6.770;2024-02-28T15:07:13;45.87;;;21.63;;
21352;SDS011;10834;52.268;6.770;2024-02-28T15:09:57;48.67;;;22.97;;
21352;SDS011;10834;52.268;6.770;2024-02-28T15:12:44;47.57;;;22.47;;
21352;SDS011;10834;52.268;6.770;2024-02-28T15:15:29;44.13;;;21.87;;
21352;SDS011;10834;52.268;6.770;2024-02-28T15:18:13;44.10;;;21.97;;
21352;SDS011;10834;52.268;6.770;2024-02-28T15:20:58;43.77;;;22.53;;
21352;SDS011;10834;52.268;6.770;2024-02-28T15:23:42;45.43;;;22.43;;
21352;SDS011;10834;52.268;6.770;2024-02-28T15:26:26;42.50;;;23.37;;
21352;SDS011;10834;52.268;6.770;2024-02-28T15:29:10;46.23;;;21.97;;
21352;SDS011;10834;52.268;6.770;2024-02-28T15:31:55;44.67;;;21.10;;
21352;SDS011;10834;52.268;6.770;2024-02-28T15:34:40;43.73;;;21.23;;
21352;SDS011;10834;52.268;6.770;2024-02-28T15:37:24;39.70;;;20.17;;
21352;SDS011;10834;52.268;6.770;2024-02-28T15:40:09;40.07;;;21.27;;
21352;SDS011;10834;52.268;6.770;2024-02-28T15:42:54;40.50;;;19.80;;
21352;SDS011;10834;52.268;6.770;2024-02-28T15:45:38;40.40;;;20.90;;
21352;SDS011;10834;52.268;6.770;2024-02-28T15:48:25;45.00;;;20.53;;
21352;SDS011;10834;52.268;6.770;2024-02-28T15:51:10;46.30;;;22.63;;
21352;SDS011;10834;52.268;6.770;2024-02-28T15:53:55;38.10;;;20.07;;
21352;SDS011;10834;52.268;6.770;2024-02-28T15:56:39;42.00;;;21.30;;
21352;SDS011;10834;52.268;6.770;2024-02-28T15:59:24;43.83;;;21.43;;
21352;SDS011;10834;52.268;6.770;2024-02-28T16:02:09;46.97;;;22.23;;